Tuesday, July 29, 2014, 2:39 AM EDT

KNHK, Nas Patuxent River Md

Location: Patuxent River, MD, United States Lat: 38.3
Local Time: 2:39 AM EDT ( 6:39 GMT) Lon: -76.4
Time Zone: US/Eastern Elev: 39 ft

Show me the last for .
Show Decoded

2014-07-29 01:52 METAR KNHK 290552Z AUTO 30010KT 10SM CLR 21/15 A2983 RMK AO2 SLP101 T02060150
                 10256 20206 53011 $ =
2014-07-29 00:52 METAR KNHK 290452Z AUTO 29012KT 10SM CLR 21/15 A2981 RMK AO2 SLP096 T02110150
                 403060211 $ =
2014-07-28 23:52 METAR KNHK 290352Z AUTO 30012KT 10SM CLR 22/14 A2980 RMK AO2 PK WND 32028/0303
                 SLP090 T02220144 $ =
2014-07-28 22:52 METAR KNHK 290252Z 30014G20KT 10SM FEW080 23/14 A2980 RMK AO2 SLP090 T02330144
                 51023 $ =
2014-07-28 21:52 METAR KNHK 290152Z 29010G19KT 10SM SCT080 24/13 A2978 RMK AO2 SLP086 T02390133 $
                 =
2014-07-28 20:52 METAR KNHK 290052Z 29012KT 10SM SCT075 SCT110 25/13 A2976 RMK AO2 SLP077
                 T02500133 $ =
2014-07-28 18:52 METAR KNHK 282252Z 28011KT 10SM FEW060 BKN100 27/14 A2971 RMK AO2 SLP060
                 T02720139 $ =
2014-07-28 17:52 METAR KNHK 282152Z 29015G20KT 10SM FEW050 SCT070 BKN100 28/13 A2969 RMK AO2
                 WSHFT 2042 SLP055 T02830128 $ =
2014-07-28 16:52 METAR KNHK 282052Z 31011KT 10SM FEW050 SCT070 SCT100 30/14 A2968 RMK AO2 SLP051
                 T03000144 53003 $ =
2014-07-28 15:52 METAR KNHK 281952Z 29013KT 10SM FEW040 FEW060 SCT100 30/13 A2967 RMK AO2 SLP049
                 T03000128 $ =
2014-07-28 14:52 METAR KNHK 281852Z 26011G22KT 10SM FEW040 FEW055 SCT100 30/14 A2967 RMK AO2
                 SLP048 T03000144 $ =
2014-07-28 13:52 METAR KNHK 281752Z 27012G19KT 10SM FEW040 SCT055 BKN100 30/16 A2967 RMK AO2
                 SLP048 T03000156 10300 20256 50009 $ =
2014-07-28 12:52 METAR KNHK 281652Z 31011KT 10SM BKN055 BKN100 28/16 A2967 RMK AO2 SLP048
                 T02830161 $ =
2014-07-28 11:52 METAR KNHK 281552Z 29018G26KT 10SM SCT049 SCT060 BKN090 29/15 A2966 RMK AO2 PK
                 WND 30026/1546 SLP044 T02890150 $ =
2014-07-28 10:52 METAR KNHK 281452Z 29011G19KT 10SM SCT049 29/17 A2964 RMK AO2 SLP038 T02940167
                 53009 $ =
2014-07-28 09:52 METAR KNHK 281352Z 27012KT 10SM FEW035 FEW120 28/18 A2963 RMK AO2 SLP035
                 T02830183 $ =
2014-07-28 08:52 METAR KNHK 281252Z 26011G19KT 10SM FEW120 27/20 A2963 RMK AO2 SLP033 T02720200 $
                 =
2014-07-28 07:52 METAR KNHK 281152Z 26011KT 10SM FEW120 FEW250 26/21 A2962 RMK AO2 SLP030
                 T02560211 10261 20239 52007 $ =
2014-07-28 06:52 METAR KNHK 281052Z 24008KT 10SM FEW070 FEW250 24/22 A2962 RMK AO2 SLP031
                 T02440217 $ =
2014-07-28 05:52 METAR KNHK 280952Z COR 24008KT 10SM FEW070 FEW250 24/22 A2959 RMK AO2 SLP021
                 T02390217 $ =
2014-07-28 04:52 METAR KNHK 280852Z 24008KT 10SM FEW050 FEW250 24/22 A2960 RMK AO2 SLP022
                 T02440217 55002 $ =
2014-07-28 03:52 METAR KNHK 280752Z AUTO 24008KT 10SM CLR 25/22 A2959 RMK AO2 SLP021 T02500217
                 PWINO $ =
2014-07-28 02:52 METAR KNHK 280652Z AUTO 23011KT 10SM CLR 26/22 A2959 RMK AO2 SLP022 T02560217
                 PWINO $ =

Support USWX by starting your Amazon purchase here.